createdAt,value
2022-12-04T00:00:37.145Z,100843.84
2022-12-04T00:05:40.119Z,100855.13
2022-12-04T00:10:44.142Z,100849.13
2022-12-04T00:15:46.985Z,100842.25
2022-12-04T00:20:50.502Z,100838.59
2022-12-04T00:25:59.334Z,100851.50
2022-12-04T00:31:07.325Z,100854.47
2022-12-04T00:36:14.823Z,100859.50
2022-12-04T00:41:22.210Z,100860.38
2022-12-04T00:46:25.554Z,100863.06
2022-12-04T00:51:29.196Z,100853.75
2022-12-04T00:56:32.229Z,100845.03
2022-12-04T01:01:35.185Z,100850.28
2022-12-04T01:06:38.167Z,100842.59
2022-12-04T01:11:41.335Z,100836.78
2022-12-04T01:16:44.513Z,100844.06
2022-12-04T01:21:47.530Z,100845.19
2022-12-04T01:26:50.355Z,100837.34
2022-12-04T01:31:53.326Z,100843.16
2022-12-04T01:36:56.302Z,100837.63
2022-12-04T01:41:59.591Z,100845.88
2022-12-04T01:47:02.935Z,100832.31
2022-12-04T01:52:10.008Z,100840.47
2022-12-04T01:57:23.350Z,100847.38
2022-12-04T02:02:41.761Z,100857.00
2022-12-04T02:07:47.481Z,100847.34
2022-12-04T02:13:20.920Z,100837.66
2022-12-04T02:18:32.296Z,100829.78
2022-12-04T02:24:21.145Z,100826.38
2022-12-04T02:30:01.093Z,100831.22
2022-12-04T02:35:24.748Z,100835.41
2022-12-04T02:40:38.725Z,100822.19
2022-12-04T02:46:12.003Z,100821.06
2022-12-04T02:51:19.021Z,100819.09
2022-12-04T02:56:29.792Z,100821.19
2022-12-04T03:01:38.774Z,100828.66
2022-12-04T03:06:47.326Z,100830.16
2022-12-04T03:11:59.881Z,100827.44
2022-12-04T03:17:10.399Z,100828.38
2022-12-04T03:22:18.789Z,100822.47
2022-12-04T03:27:45.812Z,100822.25
2022-12-04T03:33:16.882Z,100804.78
2022-12-04T03:39:00.480Z,100807.47
2022-12-04T03:44:17.056Z,100815.38
2022-12-04T03:49:38.557Z,100821.00
2022-12-04T03:54:50.280Z,100827.28
2022-12-04T04:00:05.863Z,100827.41
2022-12-04T04:05:13.432Z,100831.13
2022-12-04T04:10:24.121Z,100821.78
2022-12-04T04:15:45.823Z,100830.41
2022-12-04T04:21:19.130Z,100821.22
2022-12-04T04:26:25.567Z,100825.13
2022-12-04T04:31:50.167Z,100822.31
2022-12-04T04:37:50.024Z,100825.66
2022-12-04T04:43:10.851Z,100838.78
2022-12-04T04:48:32.758Z,100842.13
2022-12-04T04:53:57.971Z,100836.72
2022-12-04T04:59:00.854Z,100829.38
2022-12-04T05:04:06.300Z,100826.56
2022-12-04T05:09:09.233Z,100842.00
2022-12-04T05:14:12.153Z,100838.25
2022-12-04T05:19:33.319Z,100831.00
2022-12-04T05:24:36.272Z,100826.53
2022-12-04T05:29:39.566Z,100827.97
2022-12-04T05:34:42.950Z,100824.41
2022-12-04T05:39:46.510Z,100823.56
2022-12-04T05:44:50.280Z,100831.44
2022-12-04T05:49:53.847Z,100824.34
2022-12-04T05:54:57.085Z,100829.66
2022-12-04T05:59:59.953Z,100829.78
2022-12-04T06:05:03.074Z,100848.25
2022-12-04T06:10:07.814Z,100834.41
2022-12-04T06:15:11.120Z,100843.94
2022-12-04T06:20:14.441Z,100846.56
2022-12-04T06:25:17.429Z,100844.88
2022-12-04T06:30:20.683Z,100849.25
2022-12-04T06:35:23.766Z,100848.53
2022-12-04T06:40:26.889Z,100846.56
2022-12-04T06:45:29.797Z,100835.66
2022-12-04T06:50:32.707Z,100858.03
2022-12-04T06:55:35.652Z,100843.03
2022-12-04T07:00:38.566Z,100837.50
2022-12-04T07:05:41.532Z,100838.94
2022-12-04T07:10:44.818Z,100836.25
2022-12-04T07:15:47.877Z,100846.81
2022-12-04T07:20:50.728Z,100845.97
2022-12-04T07:25:53.559Z,100846.22
2022-12-04T07:30:56.435Z,100853.81
2022-12-04T07:36:02.906Z,100846.50
2022-12-04T07:41:06.848Z,100846.81
2022-12-04T07:46:17.323Z,100845.66
2022-12-04T07:51:23.950Z,100845.69
2022-12-04T07:56:26.883Z,100848.03
2022-12-04T08:01:30.688Z,100841.25
2022-12-04T08:06:35.786Z,100844.75
2022-12-04T08:11:39.057Z,100843.34
2022-12-04T08:16:41.966Z,100842.91
2022-12-04T08:21:44.895Z,100856.19
2022-12-04T08:26:47.897Z,100853.16
2022-12-04T08:31:51.055Z,100844.16
2022-12-04T08:36:53.938Z,100829.66
2022-12-04T08:41:57.308Z,100822.94
2022-12-04T08:47:00.368Z,100826.06
2022-12-04T08:52:03.254Z,100832.66
2022-12-04T08:57:06.112Z,100831.81
2022-12-04T09:02:11.308Z,100840.34
2022-12-04T09:07:14.156Z,100843.34
2022-12-04T09:12:17.124Z,100832.84
2022-12-04T09:17:19.899Z,100824.47
2022-12-04T09:22:22.948Z,100812.94
2022-12-04T09:27:25.894Z,100816.31
2022-12-04T09:32:29.140Z,100814.41
2022-12-04T09:37:33.970Z,100817.50
2022-12-04T09:43:30.491Z,100803.50
2022-12-04T09:48:40.098Z,100797.97
2022-12-04T09:54:05.264Z,100790.31
2022-12-04T09:59:23.723Z,100777.47
2022-12-04T10:04:26.795Z,100768.03
2022-12-04T10:09:48.153Z,100765.00
2022-12-04T10:15:26.677Z,100759.00
2022-12-04T10:20:35.253Z,100746.03
2022-12-04T10:25:39.912Z,100728.03
2022-12-04T10:30:45.585Z,100740.53
2022-12-04T10:35:54.021Z,100731.38
2022-12-04T10:41:08.765Z,100728.38
2022-12-04T10:46:28.923Z,100735.69
2022-12-04T10:51:40.029Z,100716.91
2022-12-04T10:56:57.493Z,100709.41
2022-12-04T11:02:25.961Z,100696.56
2022-12-04T11:07:47.564Z,100680.72
2022-12-04T11:13:23.224Z,100675.75
2022-12-04T11:18:30.599Z,100669.75
2022-12-04T11:23:48.832Z,100663.19
2022-12-04T11:28:54.603Z,100643.47
2022-12-04T11:34:09.034Z,100644.31
2022-12-04T11:39:11.940Z,100643.91
2022-12-04T11:44:26.618Z,100629.16
2022-12-04T11:49:32.222Z,100644.34
2022-12-04T11:54:50.562Z,100626.66
2022-12-04T12:00:20.810Z,100617.63
2022-12-04T12:06:19.535Z,100617.59
2022-12-04T12:11:34.487Z,100608.13
2022-12-04T12:17:10.864Z,100607.59
2022-12-04T12:22:46.123Z,100604.81
2022-12-04T12:27:57.981Z,100615.41
2022-12-04T12:33:19.952Z,100606.94
2022-12-04T12:38:29.173Z,100610.69
2022-12-04T12:43:36.991Z,100607.78
2022-12-04T12:49:00.870Z,100596.13
2022-12-04T12:54:39.398Z,100600.13
2022-12-04T12:59:52.546Z,100600.28
2022-12-04T13:05:00.574Z,100585.25
2022-12-04T13:10:24.196Z,100592.34
2022-12-04T13:15:51.676Z,100574.69
2022-12-04T13:21:00.670Z,100573.16
2022-12-04T13:26:09.476Z,100583.59
2022-12-04T13:31:55.150Z,100590.69
2022-12-04T13:37:17.219Z,100594.84
2022-12-04T13:42:28.999Z,100594.00
2022-12-04T13:47:36.044Z,100603.91
2022-12-04T13:52:41.899Z,100605.97
2022-12-04T13:58:01.515Z,100609.88
2022-12-04T14:03:44.551Z,100609.69
2022-12-04T14:08:54.864Z,100614.97
2022-12-04T14:14:04.965Z,100606.84
2022-12-04T14:19:33.668Z,100615.56
2022-12-04T14:24:40.070Z,100618.03
2022-12-04T14:29:55.084Z,100630.81
2022-12-04T14:34:59.134Z,100627.00
2022-12-04T14:40:07.393Z,100625.72
2022-12-04T14:45:51.018Z,100628.78
2022-12-04T14:51:24.581Z,100635.41
2022-12-04T14:56:48.542Z,100630.50
2022-12-04T15:01:55.123Z,100636.75
2022-12-04T15:07:00.571Z,100629.81
2022-12-04T15:12:36.408Z,100640.38
2022-12-04T15:17:40.018Z,100648.38
2022-12-04T15:22:43.516Z,100643.09
2022-12-04T15:27:53.420Z,100649.22
2022-12-04T15:32:56.688Z,100645.88
2022-12-04T15:37:59.884Z,100647.56
2022-12-04T15:43:17.534Z,100631.03
2022-12-04T15:48:30.294Z,100645.19
2022-12-04T15:53:39.226Z,100650.47
2022-12-04T15:58:59.433Z,100653.09
2022-12-04T16:04:02.374Z,100653.34
2022-12-04T16:09:17.407Z,100648.34
2022-12-04T16:14:20.393Z,100657.22
2022-12-04T16:19:39.608Z,100661.66
2022-12-04T16:24:43.111Z,100659.13
2022-12-04T16:29:46.790Z,100654.84
2022-12-04T16:34:49.604Z,100663.84
2022-12-04T16:39:52.544Z,100659.78
2022-12-04T16:44:56.290Z,100656.53
2022-12-04T16:49:59.528Z,100651.53
2022-12-04T16:55:05.333Z,100663.31
2022-12-04T17:00:17.031Z,100664.50
2022-12-04T17:05:27.252Z,100658.63
2022-12-04T17:10:30.223Z,100658.88
2022-12-04T17:15:33.163Z,100654.84
2022-12-04T17:20:36.054Z,100655.06
2022-12-04T17:25:40.345Z,100654.38
2022-12-04T17:30:49.748Z,100662.66
2022-12-04T17:35:54.101Z,100663.16
2022-12-04T17:41:04.821Z,100667.72
2022-12-04T17:46:14.500Z,100662.69
2022-12-04T17:51:23.078Z,100665.31
2022-12-04T17:56:26.366Z,100666.03
2022-12-04T18:01:30.407Z,100665.91
2022-12-04T18:06:36.779Z,100665.06
2022-12-04T18:11:42.503Z,100670.34
2022-12-04T18:16:52.858Z,100667.59
2022-12-04T18:21:56.084Z,100678.25
2022-12-04T18:26:59.043Z,100674.06
2022-12-04T18:32:04.507Z,100687.63
2022-12-04T18:37:07.276Z,100680.91
2022-12-04T18:42:10.225Z,100690.75
2022-12-04T18:47:13.156Z,100688.22
2022-12-04T18:52:15.990Z,100686.56
2022-12-04T18:57:18.872Z,100692.78
2022-12-04T19:02:21.945Z,100691.97
2022-12-04T19:07:24.836Z,100686.91
2022-12-04T19:12:27.661Z,100682.63
2022-12-04T19:17:30.502Z,100682.88
2022-12-04T19:22:33.390Z,100686.47
2022-12-04T19:27:36.288Z,100691.63
2022-12-04T19:32:39.115Z,100688.84
2022-12-04T19:37:45.769Z,100687.19
2022-12-04T19:42:51.060Z,100694.13
2022-12-04T19:47:53.826Z,100693.16
2022-12-04T19:52:57.038Z,100693.16
2022-12-04T19:58:01.615Z,100700.09
2022-12-04T20:03:05.064Z,100696.63
2022-12-04T20:13:09.962Z,100710.75
2022-12-04T20:18:13.010Z,100704.91
2022-12-04T20:23:16.102Z,100700.59
2022-12-04T20:28:19.185Z,100708.63
2022-12-04T20:33:22.069Z,100718.31
2022-12-04T20:38:24.916Z,100712.44
2022-12-04T20:43:27.827Z,100717.25
2022-12-04T20:48:30.819Z,100733.44
2022-12-04T20:53:33.693Z,100723.38
2022-12-04T20:58:36.722Z,100724.56
2022-12-04T21:03:39.977Z,100720.47
2022-12-04T21:08:56.965Z,100726.13
2022-12-04T21:14:20.714Z,100713.19
2022-12-04T21:19:23.875Z,100713.31
2022-12-04T21:24:27.960Z,100723.13
2022-12-04T21:29:30.869Z,100720.50
2022-12-04T21:34:34.068Z,100720.59
2022-12-04T21:39:37.349Z,100725.75
2022-12-04T21:44:40.436Z,100725.88
2022-12-04T21:49:43.391Z,100726.81
2022-12-04T21:54:51.109Z,100718.22
2022-12-04T21:59:54.233Z,100712.81
2022-12-04T22:04:57.763Z,100719.28
2022-12-04T22:10:04.101Z,100735.19
2022-12-04T22:15:10.677Z,100730.19
2022-12-04T22:20:13.444Z,100733.03
2022-12-04T22:25:16.518Z,100727.41
2022-12-04T22:30:19.552Z,100732.78
2022-12-04T22:35:22.545Z,100734.94
2022-12-04T22:40:25.747Z,100737.69
2022-12-04T22:45:28.624Z,100728.97
2022-12-04T22:50:31.334Z,100725.59
2022-12-04T22:55:35.768Z,100713.50
2022-12-04T23:00:39.589Z,100720.44
2022-12-04T23:05:42.623Z,100715.19
2022-12-04T23:10:45.482Z,100709.19
2022-12-04T23:15:50.096Z,100716.25
2022-12-04T23:20:54.228Z,100708.47
2022-12-04T23:25:57.118Z,100716.47
2022-12-04T23:31:01.359Z,100706.06
2022-12-04T23:36:06.129Z,100696.50
2022-12-04T23:41:22.561Z,100701.66
2022-12-04T23:46:31.200Z,100706.78
2022-12-04T23:51:34.188Z,100715.63
2022-12-04T23:56:37.406Z,100714.81
